createdAt,value
2018-05-03T00:00:16.550Z,73.12
2018-05-03T00:02:42.363Z,71.92
2018-05-03T00:05:08.155Z,71.71
2018-05-03T00:07:33.955Z,71.95
2018-05-03T00:09:59.735Z,73.89
2018-05-03T00:12:25.530Z,72.80
2018-05-03T00:14:51.342Z,73.02
2018-05-03T00:17:17.117Z,73.22
2018-05-03T00:19:42.919Z,73.40
2018-05-03T00:22:08.715Z,73.59
2018-05-03T00:24:34.522Z,72.38
2018-05-03T00:27:00.314Z,72.22
2018-05-03T00:29:26.108Z,74.27
2018-05-03T00:31:51.917Z,73.36
2018-05-03T00:34:17.690Z,74.89
2018-05-03T00:36:43.707Z,74.87
2018-05-03T00:39:09.522Z,75.30
2018-05-03T00:41:35.310Z,73.08
2018-05-03T00:44:01.099Z,74.80
2018-05-03T00:46:26.944Z,75.00
2018-05-03T00:48:52.715Z,74.66
2018-05-03T00:51:18.488Z,76.46
2018-05-03T00:53:44.267Z,75.65
2018-05-03T00:56:10.196Z,75.35
2018-05-03T00:58:35.998Z,76.32
2018-05-03T01:01:01.823Z,75.33
2018-05-03T01:03:27.926Z,75.63
2018-05-03T01:05:53.710Z,76.08
2018-05-03T01:08:19.507Z,75.72
2018-05-03T01:10:45.689Z,76.85
2018-05-03T01:13:11.469Z,77.55
2018-05-03T01:15:37.236Z,76.27
2018-05-03T01:18:03.051Z,76.10
2018-05-03T01:20:28.845Z,77.34
2018-05-03T01:22:54.661Z,75.96
2018-05-03T01:25:20.485Z,77.27
2018-05-03T01:27:46.277Z,75.46
2018-05-03T01:30:12.080Z,75.36
2018-05-03T01:32:37.882Z,76.35
2018-05-03T01:35:16.158Z,75.80
2018-05-03T01:37:42.276Z,77.06
2018-05-03T01:40:08.066Z,75.67
2018-05-03T01:42:33.870Z,73.78
2018-05-03T01:44:59.697Z,74.44
2018-05-03T01:47:25.469Z,75.93
2018-05-03T01:49:51.270Z,75.27
2018-05-03T01:52:17.307Z,76.15
2018-05-03T01:54:43.097Z,76.61
2018-05-03T01:57:08.877Z,75.33
2018-05-03T01:59:34.677Z,76.44
2018-05-03T02:02:00.484Z,77.19
2018-05-03T02:04:26.277Z,76.81
2018-05-03T02:06:52.506Z,77.40
2018-05-03T02:09:18.305Z,77.13
2018-05-03T02:11:44.107Z,78.13
2018-05-03T02:14:10.205Z,77.17
2018-05-03T02:16:35.999Z,77.57
2018-05-03T02:19:01.829Z,77.78
2018-05-03T02:21:27.630Z,77.61
2018-05-03T02:23:53.417Z,77.49
2018-05-03T02:26:19.189Z,77.67
2018-05-03T02:28:44.985Z,77.59
2018-05-03T02:31:10.783Z,77.99
2018-05-03T02:33:36.581Z,78.03
2018-05-03T02:36:02.478Z,78.25
2018-05-03T02:38:28.278Z,78.26
2018-05-03T02:40:54.074Z,78.33
2018-05-03T02:43:19.849Z,78.44
2018-05-03T02:45:45.642Z,78.54
2018-05-03T02:48:11.784Z,78.44
2018-05-03T02:50:37.609Z,78.29
2018-05-03T02:53:03.419Z,78.28
2018-05-03T02:55:29.229Z,78.37
2018-05-03T02:58:13.812Z,78.40
2018-05-03T03:00:58.326Z,78.25
2018-05-03T03:03:42.813Z,78.12
2018-05-03T03:06:27.250Z,78.22
2018-05-03T03:09:12.355Z,78.30
2018-05-03T03:11:56.874Z,78.19
2018-05-03T03:14:41.431Z,78.01
2018-05-03T03:17:25.872Z,78.18
2018-05-03T03:20:10.373Z,78.27
2018-05-03T03:22:54.786Z,78.55
2018-05-03T03:25:37.953Z,78.76
2018-05-03T03:28:22.444Z,78.83
2018-05-03T03:31:06.909Z,78.66
2018-05-03T03:33:45.210Z,78.63
2018-05-03T03:39:21.518Z,78.93
2018-05-03T03:41:47.340Z,79.40
2018-05-03T03:47:08.131Z,79.88
2018-05-03T03:49:33.930Z,79.80
2018-05-03T03:51:59.756Z,79.71
2018-05-03T03:54:25.529Z,79.74
2018-05-03T03:56:51.310Z,79.82
2018-05-03T03:59:17.090Z,79.77
2018-05-03T04:01:42.930Z,80.10
2018-05-03T04:04:08.959Z,80.39
2018-05-03T04:06:34.764Z,80.45
2018-05-03T04:09:00.537Z,80.37
2018-05-03T04:11:26.630Z,80.37
2018-05-03T04:13:52.434Z,80.36
2018-05-03T04:16:18.246Z,80.27
2018-05-03T04:18:56.496Z,80.34
2018-05-03T04:21:34.608Z,80.05
2018-05-03T04:24:12.833Z,80.25
2018-05-03T04:26:38.663Z,80.26
2018-05-03T04:29:04.427Z,80.49
2018-05-03T04:31:30.543Z,80.34
2018-05-03T04:33:56.330Z,80.24
2018-05-03T04:36:22.115Z,80.18
2018-05-03T04:38:47.924Z,80.12
2018-05-03T04:41:13.701Z,80.26
2018-05-03T04:43:40.032Z,80.21
2018-05-03T04:46:05.829Z,80.19
2018-05-03T04:48:31.623Z,80.13
2018-05-03T04:50:57.439Z,79.90
2018-05-03T04:53:23.221Z,79.78
2018-05-03T04:55:55.949Z,80.47
2018-05-03T04:58:22.113Z,80.31
2018-05-03T05:00:47.908Z,80.56
2018-05-03T05:03:13.698Z,80.67
2018-05-03T05:05:39.795Z,80.92
2018-05-03T05:08:05.594Z,81.42
2018-05-03T05:10:31.395Z,81.80
2018-05-03T05:12:57.194Z,82.24
2018-05-03T05:15:22.972Z,82.28
2018-05-03T05:17:48.853Z,82.29
2018-05-03T05:20:14.581Z,82.26
2018-05-03T05:22:40.697Z,81.53
2018-05-03T05:25:06.484Z,80.68
2018-05-03T05:27:32.267Z,76.84
2018-05-03T05:29:58.058Z,76.38
2018-05-03T05:32:23.849Z,74.66
2018-05-03T05:34:49.677Z,75.01
2018-05-03T05:37:15.457Z,75.34
2018-05-03T05:39:41.246Z,75.17
2018-05-03T05:42:07.069Z,75.85
2018-05-03T05:44:32.885Z,75.68
2018-05-03T05:46:58.656Z,75.30
2018-05-03T05:49:24.500Z,74.94
2018-05-03T05:51:50.297Z,74.18
2018-05-03T05:54:16.087Z,74.07
2018-05-03T05:56:41.921Z,74.92
2018-05-03T05:59:07.724Z,73.63
2018-05-03T06:01:33.521Z,75.40
2018-05-03T06:03:59.747Z,74.05
2018-05-03T06:06:25.752Z,73.07
2018-05-03T06:08:51.525Z,72.56
2018-05-03T06:11:17.329Z,72.97
2018-05-03T06:13:43.117Z,73.07
2018-05-03T06:16:08.908Z,72.70
2018-05-03T06:18:35.149Z,74.29
2018-05-03T06:21:00.952Z,73.53
2018-05-03T06:23:26.742Z,74.30
2018-05-03T06:25:52.546Z,73.61
2018-05-03T06:28:18.334Z,73.88
2018-05-03T06:30:44.121Z,73.55
2018-05-03T06:33:10.367Z,73.91
2018-05-03T06:35:36.166Z,75.22
2018-05-03T06:38:01.971Z,73.46
2018-05-03T06:40:28.131Z,74.41
2018-05-03T06:42:53.930Z,75.36
2018-05-03T06:45:19.808Z,75.27
2018-05-03T06:47:45.567Z,74.61
2018-05-03T06:50:11.363Z,74.98
2018-05-03T06:52:37.177Z,75.21
2018-05-03T06:55:03.011Z,75.16
2018-05-03T06:57:28.794Z,75.09
2018-05-03T06:59:54.589Z,76.49
2018-05-03T07:02:20.751Z,75.02
2018-05-03T07:04:46.558Z,74.82
2018-05-03T07:07:12.342Z,74.93
2018-05-03T07:09:38.146Z,75.23
2018-05-03T07:12:03.970Z,73.92
2018-05-03T07:14:29.749Z,74.37
2018-05-03T07:16:55.589Z,73.54
2018-05-03T07:19:21.362Z,73.01
2018-05-03T07:21:47.166Z,72.35
2018-05-03T07:24:12.969Z,72.37
2018-05-03T07:26:38.762Z,71.72
2018-05-03T07:29:04.528Z,72.15
2018-05-03T07:31:30.348Z,71.83
2018-05-03T07:33:56.180Z,70.64
2018-05-03T07:36:22.007Z,68.51
2018-05-03T07:38:47.866Z,69.03
2018-05-03T07:41:13.619Z,67.43
2018-05-03T07:43:39.461Z,66.82
2018-05-03T07:46:05.272Z,66.07
2018-05-03T07:48:31.342Z,64.88
2018-05-03T07:50:57.458Z,66.30
2018-05-03T07:53:23.575Z,67.02
2018-05-03T07:55:49.387Z,62.96
2018-05-03T07:58:15.388Z,63.36
2018-05-03T08:00:41.222Z,64.34
2018-05-03T08:03:07.009Z,65.32
2018-05-03T08:05:33.215Z,64.93
2018-05-03T08:07:59.058Z,64.31
2018-05-03T08:10:24.853Z,63.79
2018-05-03T08:12:50.656Z,62.96
2018-05-03T08:15:16.737Z,64.07
2018-05-03T08:17:43.497Z,62.78
2018-05-03T08:20:09.295Z,62.33
2018-05-03T08:22:35.094Z,62.18
2018-05-03T08:25:00.915Z,63.17
2018-05-03T08:27:26.732Z,63.86
2018-05-03T08:29:52.520Z,62.70
2018-05-03T08:32:18.338Z,63.65
2018-05-03T08:34:44.133Z,63.49
2018-05-03T08:37:09.899Z,61.43
2018-05-03T08:39:35.708Z,61.55
2018-05-03T08:42:01.505Z,61.59
2018-05-03T08:44:34.191Z,62.19
2018-05-03T08:46:59.996Z,62.47
2018-05-03T08:49:25.778Z,61.98
2018-05-03T08:51:51.611Z,62.46
2018-05-03T08:54:17.385Z,62.25
2018-05-03T08:56:43.167Z,62.43
2018-05-03T08:59:08.979Z,58.52
2018-05-03T09:01:34.794Z,58.72
2018-05-03T09:04:07.546Z,61.56
2018-05-03T09:06:33.365Z,58.26
2018-05-03T09:08:59.215Z,58.19
2018-05-03T09:11:25.008Z,58.03
2018-05-03T09:13:50.797Z,56.08
2018-05-03T09:16:16.615Z,55.37
2018-05-03T09:18:42.762Z,54.47
2018-05-03T09:21:08.886Z,54.45
2018-05-03T09:23:34.946Z,53.81
2018-05-03T09:26:00.738Z,53.08
2018-05-03T09:28:26.534Z,53.88
2018-05-03T09:30:52.451Z,54.74
2018-05-03T09:33:18.267Z,56.21
2018-05-03T09:35:44.053Z,52.42
2018-05-03T09:38:10.169Z,52.59
2018-05-03T09:40:35.995Z,53.14
2018-05-03T09:43:01.776Z,53.68
2018-05-03T09:45:27.582Z,53.12
2018-05-03T09:47:53.377Z,53.17
2018-05-03T09:50:19.209Z,52.69
2018-05-03T09:52:45.039Z,53.50
2018-05-03T09:55:10.825Z,52.58
2018-05-03T09:57:36.676Z,53.18
2018-05-03T10:00:02.461Z,50.85
2018-05-03T10:02:28.275Z,52.14
2018-05-03T10:04:54.115Z,52.95
2018-05-03T10:07:19.873Z,52.08
2018-05-03T10:09:45.677Z,50.74
2018-05-03T10:12:11.453Z,50.92
2018-05-03T10:14:37.267Z,49.98
2018-05-03T10:17:03.114Z,50.54
2018-05-03T10:19:28.889Z,48.51
2018-05-03T10:21:54.691Z,45.57
2018-05-03T10:24:20.493Z,44.42
2018-05-03T10:26:46.286Z,44.38
2018-05-03T10:29:12.077Z,43.29
2018-05-03T10:31:37.877Z,45.29
2018-05-03T10:34:03.686Z,42.55
2018-05-03T10:36:29.490Z,43.59
2018-05-03T10:38:55.721Z,46.63
2018-05-03T10:41:21.511Z,43.74
2018-05-03T10:43:47.301Z,42.64
2018-05-03T10:46:13.113Z,42.91
2018-05-03T10:48:39.175Z,43.35
2018-05-03T10:51:05.947Z,49.56
2018-05-03T10:53:31.733Z,45.97
2018-05-03T10:55:57.693Z,46.37
2018-05-03T10:58:24.017Z,47.49
2018-05-03T11:00:50.634Z,47.89
2018-05-03T11:03:16.420Z,43.67
2018-05-03T11:05:43.169Z,45.41
2018-05-03T11:08:08.970Z,45.67
2018-05-03T11:10:34.793Z,47.72
2018-05-03T11:13:00.585Z,47.76
2018-05-03T11:15:26.362Z,48.65
2018-05-03T11:17:52.159Z,47.13
2018-05-03T11:20:17.941Z,48.19
2018-05-03T11:22:43.876Z,48.56
2018-05-03T11:25:09.701Z,46.33
2018-05-03T11:27:35.785Z,46.25
2018-05-03T11:30:01.595Z,45.82
2018-05-03T11:32:27.408Z,44.77
2018-05-03T11:34:53.194Z,44.21
2018-05-03T11:37:19.015Z,42.48
2018-05-03T11:39:49.178Z,44.61
2018-05-03T11:42:14.981Z,43.44
2018-05-03T11:44:40.753Z,42.74
2018-05-03T11:47:06.573Z,43.18
2018-05-03T11:49:39.308Z,45.85
2018-05-03T11:52:05.113Z,44.17
2018-05-03T11:54:30.974Z,44.53
2018-05-03T11:56:56.765Z,43.72
2018-05-03T11:59:22.605Z,43.89
2018-05-03T12:01:48.367Z,44.30
2018-05-03T12:04:14.254Z,43.73
2018-05-03T12:06:40.091Z,44.71
2018-05-03T12:09:05.866Z,44.75
2018-05-03T12:11:31.653Z,41.95
2018-05-03T12:13:57.681Z,43.03
2018-05-03T12:16:23.484Z,41.66
2018-05-03T12:18:49.270Z,42.30
2018-05-03T12:21:15.077Z,43.04
2018-05-03T12:23:40.849Z,42.35
2018-05-03T12:26:06.681Z,41.96
2018-05-03T12:28:32.457Z,40.77
2018-05-03T12:30:58.269Z,39.62
2018-05-03T12:33:24.072Z,40.35
2018-05-03T12:35:49.858Z,39.34
2018-05-03T12:38:15.674Z,38.51
2018-05-03T12:40:41.477Z,39.55
2018-05-03T12:43:07.253Z,39.06
2018-05-03T12:45:35.202Z,38.84
2018-05-03T12:48:01.003Z,36.93
2018-05-03T12:50:26.825Z,37.36
2018-05-03T12:52:59.794Z,38.03
2018-05-03T12:55:25.913Z,37.15
2018-05-03T12:57:51.698Z,36.74
2018-05-03T13:00:17.501Z,37.12
2018-05-03T13:02:43.843Z,37.26
2018-05-03T13:05:09.653Z,38.77
2018-05-03T13:07:35.454Z,37.78
2018-05-03T13:10:01.277Z,37.58
2018-05-03T13:12:27.069Z,39.14
2018-05-03T13:14:52.900Z,38.32
2018-05-03T13:17:18.702Z,38.75
2018-05-03T13:19:44.488Z,39.17
2018-05-03T13:22:10.277Z,39.07
2018-05-03T13:24:36.079Z,38.72
2018-05-03T13:27:02.278Z,38.91
2018-05-03T13:29:28.063Z,38.56
2018-05-03T13:31:53.876Z,39.23
2018-05-03T13:34:19.685Z,39.82
2018-05-03T13:36:45.470Z,38.64
2018-05-03T13:39:11.266Z,37.42
2018-05-03T13:41:37.397Z,36.65
2018-05-03T13:44:03.220Z,37.19
2018-05-03T13:46:29.002Z,36.18
2018-05-03T13:48:54.801Z,35.74
2018-05-03T13:51:20.598Z,36.82
2018-05-03T13:53:46.384Z,35.57
2018-05-03T13:56:12.210Z,35.01
2018-05-03T13:58:38.025Z,35.97
2018-05-03T14:01:03.856Z,33.74
2018-05-03T14:03:29.706Z,33.17
2018-05-03T14:05:55.502Z,34.36
2018-05-03T14:08:21.295Z,33.62
2018-05-03T14:10:47.108Z,32.90
2018-05-03T14:13:12.900Z,33.04
2018-05-03T14:15:38.674Z,32.72
2018-05-03T14:18:04.457Z,31.88
2018-05-03T14:20:30.242Z,31.75
2018-05-03T14:22:56.044Z,33.92
2018-05-03T14:25:21.856Z,32.95
2018-05-03T14:27:47.647Z,33.49
2018-05-03T14:30:13.458Z,35.26
2018-05-03T14:32:39.251Z,33.88
2018-05-03T14:35:05.045Z,34.67
2018-05-03T14:37:30.843Z,33.56
2018-05-03T14:39:56.626Z,35.10
2018-05-03T14:42:22.402Z,35.47
2018-05-03T14:44:48.201Z,36.01
2018-05-03T14:47:14.021Z,35.86
2018-05-03T14:49:39.778Z,35.25
2018-05-03T14:52:05.608Z,36.03
2018-05-03T14:54:31.426Z,36.17
2018-05-03T14:56:57.213Z,35.33
2018-05-03T14:59:22.998Z,34.95
2018-05-03T15:01:48.796Z,36.34
2018-05-03T15:04:14.600Z,37.27
2018-05-03T15:06:40.457Z,39.14
2018-05-03T15:09:06.232Z,39.23
2018-05-03T15:11:32.019Z,39.51
2018-05-03T15:13:57.850Z,39.93
2018-05-03T15:16:23.672Z,41.48
2018-05-03T15:18:49.434Z,41.76
2018-05-03T15:21:15.228Z,42.39
2018-05-03T15:23:41.055Z,42.46
2018-05-03T15:26:06.842Z,42.57
2018-05-03T15:28:32.635Z,42.01
2018-05-03T15:30:58.454Z,42.85
2018-05-03T15:33:24.226Z,41.76
2018-05-03T15:35:50.020Z,43.20
2018-05-03T15:38:15.830Z,42.53
2018-05-03T15:40:41.606Z,43.13
2018-05-03T15:43:07.411Z,43.64
2018-05-03T15:45:33.213Z,41.52
2018-05-03T15:47:59.005Z,41.46
2018-05-03T15:50:24.793Z,41.96
2018-05-03T15:52:50.576Z,42.10
2018-05-03T15:55:16.564Z,41.79
2018-05-03T15:57:42.366Z,42.35
2018-05-03T16:00:08.167Z,42.90
2018-05-03T16:02:33.976Z,42.71
2018-05-03T16:04:59.761Z,43.29
2018-05-03T16:07:25.934Z,42.36
2018-05-03T16:09:51.713Z,43.99
2018-05-03T16:12:17.624Z,43.83
2018-05-03T16:14:43.470Z,46.14
2018-05-03T16:17:09.255Z,44.22
2018-05-03T16:19:35.089Z,45.42
2018-05-03T16:22:00.868Z,45.70
2018-05-03T16:24:26.683Z,46.65
2018-05-03T16:26:52.506Z,45.37
2018-05-03T16:29:18.315Z,46.87
2018-05-03T16:31:44.138Z,45.63
2018-05-03T16:34:09.954Z,45.58
2018-05-03T16:36:35.739Z,46.76
2018-05-03T16:39:01.532Z,45.60
2018-05-03T16:41:27.346Z,45.47
2018-05-03T16:43:53.149Z,46.81
2018-05-03T16:46:18.946Z,45.97
2018-05-03T16:48:44.764Z,45.70
2018-05-03T16:51:10.584Z,45.84
2018-05-03T16:53:36.364Z,45.67
2018-05-03T16:56:02.749Z,46.82
2018-05-03T16:58:28.554Z,45.76
2018-05-03T17:00:54.341Z,46.26
2018-05-03T17:03:20.165Z,47.04
2018-05-03T17:05:45.958Z,46.91
2018-05-03T17:08:11.847Z,47.90
2018-05-03T17:10:37.641Z,46.63
2018-05-03T17:13:03.483Z,46.60
2018-05-03T17:15:29.281Z,45.71
2018-05-03T17:17:55.082Z,48.17
2018-05-03T17:20:21.237Z,46.38
2018-05-03T17:22:47.021Z,46.13
2018-05-03T17:25:12.824Z,47.57
2018-05-03T17:27:38.626Z,46.73
2018-05-03T17:30:04.418Z,46.61
2018-05-03T17:32:30.224Z,47.37
2018-05-03T17:34:56.023Z,48.62
2018-05-03T17:37:21.805Z,47.78
2018-05-03T17:39:47.629Z,47.29
2018-05-03T17:42:13.421Z,47.44
2018-05-03T17:44:39.226Z,51.65
2018-05-03T17:47:05.001Z,46.93
2018-05-03T17:49:30.792Z,47.33
2018-05-03T17:51:56.620Z,46.72
2018-05-03T17:54:22.406Z,49.73
2018-05-03T17:56:48.208Z,48.92
2018-05-03T17:59:13.988Z,48.61
2018-05-03T18:01:39.840Z,49.09
2018-05-03T18:04:05.628Z,52.29
2018-05-03T18:06:31.407Z,48.17
2018-05-03T18:08:57.196Z,48.35
2018-05-03T18:11:22.976Z,48.79
2018-05-03T18:13:48.793Z,47.00
2018-05-03T18:16:14.746Z,47.95
2018-05-03T18:18:40.474Z,47.55
2018-05-03T18:21:06.427Z,49.20
2018-05-03T18:23:32.213Z,48.63
2018-05-03T18:25:58.009Z,48.57
2018-05-03T18:28:24.149Z,49.22
2018-05-03T18:30:49.977Z,49.43
2018-05-03T18:33:15.753Z,50.38
2018-05-03T18:35:41.550Z,50.18
2018-05-03T18:38:07.416Z,51.37
2018-05-03T18:40:33.547Z,50.77
2018-05-03T18:42:59.324Z,51.57
2018-05-03T18:45:25.102Z,52.96
2018-05-03T18:47:51.106Z,52.77
2018-05-03T18:50:16.927Z,53.64
2018-05-03T18:52:42.713Z,54.10
2018-05-03T18:55:08.499Z,54.78
2018-05-03T18:57:34.293Z,54.57
2018-05-03T19:00:00.155Z,55.19
2018-05-03T19:02:25.930Z,56.02
2018-05-03T19:04:51.731Z,56.07
2018-05-03T19:07:17.965Z,56.32
2018-05-03T19:09:43.787Z,57.04
2018-05-03T19:12:09.594Z,58.59
2018-05-03T19:14:35.474Z,58.63
2018-05-03T19:17:01.208Z,58.94
2018-05-03T19:19:27.002Z,59.92
2018-05-03T19:21:52.822Z,60.39
2018-05-03T19:24:18.619Z,60.77
2018-05-03T19:26:44.434Z,60.77
2018-05-03T19:29:10.531Z,60.99
2018-05-03T19:31:36.318Z,62.17
2018-05-03T19:34:02.092Z,62.59
2018-05-03T19:36:27.904Z,64.34
2018-05-03T19:38:53.696Z,63.09
2018-05-03T19:41:19.482Z,64.70
2018-05-03T19:43:45.296Z,63.91
2018-05-03T19:46:11.077Z,63.85
2018-05-03T19:48:36.857Z,64.16
2018-05-03T19:51:02.711Z,64.13
2018-05-03T19:53:28.498Z,64.30
2018-05-03T19:55:54.281Z,64.90
2018-05-03T19:58:20.091Z,64.47
2018-05-03T20:00:46.272Z,64.61
2018-05-03T20:03:12.079Z,64.60
2018-05-03T20:05:37.866Z,66.54
2018-05-03T20:08:04.173Z,65.38
2018-05-03T20:10:29.962Z,65.75
2018-05-03T20:12:55.738Z,67.59
2018-05-03T20:15:21.561Z,67.08
2018-05-03T20:17:47.650Z,68.18
2018-05-03T20:20:13.446Z,68.12
2018-05-03T20:22:39.240Z,67.54
2018-05-03T20:25:05.371Z,68.33
2018-05-03T20:27:31.173Z,68.08
2018-05-03T20:30:03.951Z,68.98
2018-05-03T20:32:29.749Z,69.13
2018-05-03T20:34:55.538Z,69.79
2018-05-03T20:37:21.352Z,70.32
2018-05-03T20:39:47.223Z,71.34
2018-05-03T20:42:12.921Z,71.40
2018-05-03T20:44:38.743Z,71.10
2018-05-03T20:47:04.546Z,71.18
2018-05-03T20:49:30.329Z,71.28
2018-05-03T20:51:56.211Z,72.14
2018-05-03T20:54:21.921Z,72.20
2018-05-03T20:56:47.702Z,72.43
2018-05-03T20:59:13.491Z,72.25
2018-05-03T21:01:39.285Z,71.67
2018-05-03T21:04:05.080Z,75.09
2018-05-03T21:06:30.878Z,75.28
2018-05-03T21:08:56.817Z,68.87
2018-05-03T21:11:22.627Z,71.14
2018-05-03T21:13:48.422Z,71.17
2018-05-03T21:16:14.241Z,73.40
2018-05-03T21:18:40.013Z,69.48
2018-05-03T21:21:05.831Z,71.81
2018-05-03T21:23:31.606Z,68.50
2018-05-03T21:25:57.406Z,70.17
2018-05-03T21:28:23.205Z,69.94
2018-05-03T21:30:49.014Z,71.05
2018-05-03T21:33:14.865Z,68.11
2018-05-03T21:35:40.662Z,71.37
2018-05-03T21:38:06.441Z,67.89
2018-05-03T21:40:32.252Z,67.87
2018-05-03T21:42:58.032Z,69.47
2018-05-03T21:45:23.817Z,68.05
2018-05-03T21:47:50.046Z,68.62
2018-05-03T21:50:15.830Z,68.48
2018-05-03T21:52:41.612Z,71.07
2018-05-03T21:55:07.398Z,69.71
2018-05-03T21:57:33.185Z,70.41
2018-05-03T21:59:58.978Z,70.09
2018-05-03T22:02:24.794Z,70.49
2018-05-03T22:04:50.601Z,69.00
2018-05-03T22:07:16.441Z,70.77
2018-05-03T22:09:42.223Z,71.72
2018-05-03T22:12:08.342Z,72.15
2018-05-03T22:14:34.117Z,73.73
2018-05-03T22:16:59.907Z,70.68
2018-05-03T22:19:25.896Z,71.43
2018-05-03T22:21:51.725Z,71.55
2018-05-03T22:24:17.563Z,71.04
2018-05-03T22:26:43.664Z,71.85
2018-05-03T22:29:09.458Z,72.27
2018-05-03T22:31:35.257Z,72.16
2018-05-03T22:34:01.050Z,74.35
2018-05-03T22:36:26.838Z,75.32
2018-05-03T22:38:52.945Z,73.66
2018-05-03T22:41:18.748Z,74.91
2018-05-03T22:43:44.540Z,73.57
2018-05-03T22:46:10.332Z,73.29
2018-05-03T22:48:36.136Z,73.59
2018-05-03T22:51:01.945Z,72.99
2018-05-03T22:53:27.737Z,74.23
2018-05-03T22:55:53.533Z,75.03
2018-05-03T22:58:19.334Z,74.45
2018-05-03T23:00:45.149Z,76.04
2018-05-03T23:03:11.345Z,75.53
2018-05-03T23:05:37.131Z,73.81
2018-05-03T23:08:02.909Z,72.71
2018-05-03T23:10:28.691Z,71.80
2018-05-03T23:12:54.493Z,73.33
2018-05-03T23:15:20.295Z,73.26
2018-05-03T23:17:46.100Z,73.66
2018-05-03T23:20:11.952Z,74.98
2018-05-03T23:22:37.729Z,74.11
2018-05-03T23:25:03.515Z,78.19
2018-05-03T23:27:29.319Z,80.05
2018-05-03T23:29:55.101Z,79.26
2018-05-03T23:32:20.890Z,77.68
2018-05-03T23:34:46.694Z,77.19
2018-05-03T23:37:12.472Z,74.91
2018-05-03T23:39:38.284Z,77.40
2018-05-03T23:42:04.077Z,74.73
2018-05-03T23:44:29.856Z,77.48
2018-05-03T23:46:55.662Z,76.10
2018-05-03T23:51:47.126Z,76.96
2018-05-03T23:54:13.120Z,76.89
2018-05-03T23:56:38.910Z,78.22
2018-05-03T23:59:04.690Z,78.27
